LIML

Milan/Linate Airport

Airport
ICAO code
LIML
IATA Code
LIN
Summary
ICAO Region
EUR
ICAO Territory
Location

Linate, Lombardy

Serving
Milan
Elevation
353 ft
Coordinates
45° 26' 39" N , 9° 16' 39" E
KCC
Metar
LIML 210650Z 09006KT 060V120 CAVOK 26/19 Q1009 NOSIG

International airport serving Milan and the Po Valley of northern Italy. Milan's principal airport is Malpensa.

Climatology

Humid “subtropical” climate (Köppen climate classification Cfa) - characterized by hot, humid summers and cool winters. Significant amounts of precipitation occur in all seasons in most areas. Winter rainfall (and sometimes snowfall) is associated with large storms that the westerlies steer from west to east. Most summer rainfall occurs during thunderstorms.

Runways

Designator Length Width Surface Rops
17/35 601 22 BIT Yes/Yes
18/36 2440 60 ASP Yes/Yes

Airport map

Aerial View

SKYbrary Partners:

Safety knowledge contributed by: